sensor_id;sensor_type;location;lat;lon;timestamp;P1;durP1;ratioP1;P2;durP2;ratioP2
6665;SDS011;3369;49.906;8.598;2022-12-22T00:02:16;3.80;;;2.80;;
6665;SDS011;3369;49.906;8.598;2022-12-22T00:05:06;2.83;;;2.53;;
6665;SDS011;3369;49.906;8.598;2022-12-22T00:07:56;3.20;;;2.43;;
6665;SDS011;3369;49.906;8.598;2022-12-22T00:10:40;2.97;;;2.50;;
6665;SDS011;3369;49.906;8.598;2022-12-22T00:13:24;3.07;;;2.60;;
6665;SDS011;3369;49.906;8.598;2022-12-22T00:16:08;3.77;;;2.70;;
6665;SDS011;3369;49.906;8.598;2022-12-22T00:18:53;2.87;;;2.57;;
6665;SDS011;3369;49.906;8.598;2022-12-22T00:21:37;6.57;;;2.37;;
6665;SDS011;3369;49.906;8.598;2022-12-22T00:24:21;3.00;;;2.53;;
6665;SDS011;3369;49.906;8.598;2022-12-22T00:27:08;4.00;;;2.43;;
6665;SDS011;3369;49.906;8.598;2022-12-22T00:30:01;3.70;;;2.60;;
6665;SDS011;3369;49.906;8.598;2022-12-22T00:32:45;2.77;;;2.57;;
6665;SDS011;3369;49.906;8.598;2022-12-22T00:35:30;4.73;;;3.00;;
6665;SDS011;3369;49.906;8.598;2022-12-22T00:38:16;3.10;;;2.80;;
6665;SDS011;3369;49.906;8.598;2022-12-22T00:41:02;5.20;;;3.20;;
6665;SDS011;3369;49.906;8.598;2022-12-22T00:43:47;4.37;;;3.30;;
6665;SDS011;3369;49.906;8.598;2022-12-22T00:46:32;3.23;;;2.93;;
6665;SDS011;3369;49.906;8.598;2022-12-22T00:49:19;3.60;;;2.90;;
6665;SDS011;3369;49.906;8.598;2022-12-22T00:52:04;7.13;;;3.50;;
6665;SDS011;3369;49.906;8.598;2022-12-22T00:54:49;4.93;;;3.40;;
6665;SDS011;3369;49.906;8.598;2022-12-22T00:57:36;4.20;;;3.50;;
6665;SDS011;3369;49.906;8.598;2022-12-22T01:00:20;6.37;;;4.03;;
6665;SDS011;3369;49.906;8.598;2022-12-22T01:03:04;6.60;;;3.43;;
6665;SDS011;3369;49.906;8.598;2022-12-22T01:05:51;5.33;;;3.90;;
6665;SDS011;3369;49.906;8.598;2022-12-22T01:08:36;5.77;;;3.77;;
6665;SDS011;3369;49.906;8.598;2022-12-22T01:11:20;4.37;;;3.53;;
6665;SDS011;3369;49.906;8.598;2022-12-22T01:14:04;5.97;;;4.17;;
6665;SDS011;3369;49.906;8.598;2022-12-22T01:16:53;5.30;;;3.47;;
6665;SDS011;3369;49.906;8.598;2022-12-22T01:19:37;3.83;;;3.40;;
6665;SDS011;3369;49.906;8.598;2022-12-22T01:22:21;4.93;;;3.50;;
6665;SDS011;3369;49.906;8.598;2022-12-22T01:25:12;5.23;;;2.97;;
6665;SDS011;3369;49.906;8.598;2022-12-22T01:27:59;4.20;;;3.13;;
6665;SDS011;3369;49.906;8.598;2022-12-22T01:30:43;4.10;;;3.70;;
6665;SDS011;3369;49.906;8.598;2022-12-22T01:33:27;4.73;;;3.30;;
6665;SDS011;3369;49.906;8.598;2022-12-22T01:36:12;5.20;;;3.43;;
6665;SDS011;3369;49.906;8.598;2022-12-22T01:38:56;4.27;;;3.73;;
6665;SDS011;3369;49.906;8.598;2022-12-22T01:41:40;7.43;;;3.67;;
6665;SDS011;3369;49.906;8.598;2022-12-22T01:44:24;4.50;;;3.70;;
6665;SDS011;3369;49.906;8.598;2022-12-22T01:53:11;5.07;;;3.93;;
6665;SDS011;3369;49.906;8.598;2022-12-22T01:56:00;5.43;;;4.10;;
6665;SDS011;3369;49.906;8.598;2022-12-22T01:58:46;6.17;;;3.93;;
6665;SDS011;3369;49.906;8.598;2022-12-22T02:01:34;7.10;;;4.53;;
6665;SDS011;3369;49.906;8.598;2022-12-22T02:04:19;5.77;;;4.40;;
6665;SDS011;3369;49.906;8.598;2022-12-22T02:07:13;6.90;;;5.13;;
6665;SDS011;3369;49.906;8.598;2022-12-22T02:10:31;5.43;;;4.63;;
6665;SDS011;3369;49.906;8.598;2022-12-22T02:13:41;7.00;;;4.83;;
6665;SDS011;3369;49.906;8.598;2022-12-22T02:16:33;8.13;;;5.17;;
6665;SDS011;3369;49.906;8.598;2022-12-22T02:39:35;9.47;;;6.13;;
6665;SDS011;3369;49.906;8.598;2022-12-22T02:42:36;9.00;;;6.07;;
6665;SDS011;3369;49.906;8.598;2022-12-22T02:48:36;7.33;;;5.90;;
6665;SDS011;3369;49.906;8.598;2022-12-22T02:51:26;8.33;;;6.03;;
6665;SDS011;3369;49.906;8.598;2022-12-22T02:54:12;7.37;;;5.90;;
6665;SDS011;3369;49.906;8.598;2022-12-22T02:57:01;5.60;;;4.97;;
6665;SDS011;3369;49.906;8.598;2022-12-22T02:59:51;5.43;;;4.93;;
6665;SDS011;3369;49.906;8.598;2022-12-22T03:02:35;5.90;;;5.30;;
6665;SDS011;3369;49.906;8.598;2022-12-22T03:05:19;5.67;;;5.03;;
6665;SDS011;3369;49.906;8.598;2022-12-22T03:08:03;7.17;;;5.10;;
6665;SDS011;3369;49.906;8.598;2022-12-22T03:10:47;6.10;;;5.47;;
6665;SDS011;3369;49.906;8.598;2022-12-22T03:13:31;6.40;;;4.97;;
6665;SDS011;3369;49.906;8.598;2022-12-22T03:16:15;5.10;;;4.40;;
6665;SDS011;3369;49.906;8.598;2022-12-22T03:18:59;6.67;;;5.30;;
6665;SDS011;3369;49.906;8.598;2022-12-22T03:21:43;5.23;;;4.57;;
6665;SDS011;3369;49.906;8.598;2022-12-22T03:24:27;7.67;;;5.07;;
6665;SDS011;3369;49.906;8.598;2022-12-22T03:27:11;4.43;;;4.00;;
6665;SDS011;3369;49.906;8.598;2022-12-22T03:29:37;8.33;;;4.90;;
6665;SDS011;3369;49.906;8.598;2022-12-22T03:32:03;5.83;;;4.47;;
6665;SDS011;3369;49.906;8.598;2022-12-22T03:34:28;5.77;;;4.10;;
6665;SDS011;3369;49.906;8.598;2022-12-22T03:36:54;4.53;;;4.13;;
6665;SDS011;3369;49.906;8.598;2022-12-22T03:39:19;4.70;;;4.30;;
6665;SDS011;3369;49.906;8.598;2022-12-22T03:41:45;5.53;;;4.60;;
6665;SDS011;3369;49.906;8.598;2022-12-22T03:44:29;5.00;;;4.50;;
6665;SDS011;3369;49.906;8.598;2022-12-22T03:47:13;7.80;;;4.77;;
6665;SDS011;3369;49.906;8.598;2022-12-22T03:49:39;9.30;;;4.73;;
6665;SDS011;3369;49.906;8.598;2022-12-22T03:52:04;4.80;;;4.00;;
6665;SDS011;3369;49.906;8.598;2022-12-22T03:54:30;4.70;;;4.07;;
6665;SDS011;3369;49.906;8.598;2022-12-22T03:56:55;4.37;;;3.97;;
6665;SDS011;3369;49.906;8.598;2022-12-22T03:59:21;4.17;;;3.63;;
6665;SDS011;3369;49.906;8.598;2022-12-22T04:01:48;4.47;;;3.67;;
6665;SDS011;3369;49.906;8.598;2022-12-22T04:04:16;6.33;;;3.50;;
6665;SDS011;3369;49.906;8.598;2022-12-22T04:06:43;4.27;;;3.67;;
6665;SDS011;3369;49.906;8.598;2022-12-22T04:09:09;4.43;;;3.40;;
6665;SDS011;3369;49.906;8.598;2022-12-22T04:11:35;6.50;;;3.90;;
6665;SDS011;3369;49.906;8.598;2022-12-22T04:14:19;4.77;;;3.53;;
6665;SDS011;3369;49.906;8.598;2022-12-22T04:16:45;4.03;;;3.63;;
6665;SDS011;3369;49.906;8.598;2022-12-22T04:19:11;3.73;;;2.97;;
6665;SDS011;3369;49.906;8.598;2022-12-22T04:21:37;4.07;;;3.30;;
6665;SDS011;3369;49.906;8.598;2022-12-22T04:24:03;4.87;;;3.50;;
6665;SDS011;3369;49.906;8.598;2022-12-22T04:26:29;3.60;;;3.30;;
6665;SDS011;3369;49.906;8.598;2022-12-22T04:28:55;7.83;;;3.33;;
6665;SDS011;3369;49.906;8.598;2022-12-22T04:31:20;7.03;;;3.60;;
6665;SDS011;3369;49.906;8.598;2022-12-22T04:33:46;4.70;;;3.30;;
6665;SDS011;3369;49.906;8.598;2022-12-22T04:36:12;4.43;;;3.27;;
6665;SDS011;3369;49.906;8.598;2022-12-22T04:38:39;4.53;;;3.13;;
6665;SDS011;3369;49.906;8.598;2022-12-22T04:41:05;5.73;;;2.90;;
6665;SDS011;3369;49.906;8.598;2022-12-22T04:43:31;4.07;;;2.87;;
6665;SDS011;3369;49.906;8.598;2022-12-22T04:45:58;4.83;;;2.93;;
6665;SDS011;3369;49.906;8.598;2022-12-22T04:48:24;7.07;;;2.93;;
6665;SDS011;3369;49.906;8.598;2022-12-22T04:50:52;4.27;;;3.27;;
6665;SDS011;3369;49.906;8.598;2022-12-22T04:53:19;5.10;;;3.20;;
6665;SDS011;3369;49.906;8.598;2022-12-22T04:55:45;3.83;;;3.00;;
6665;SDS011;3369;49.906;8.598;2022-12-22T04:58:12;3.20;;;2.80;;
6665;SDS011;3369;49.906;8.598;2022-12-22T05:00:38;6.03;;;2.97;;
6665;SDS011;3369;49.906;8.598;2022-12-22T05:03:04;6.70;;;3.10;;
6665;SDS011;3369;49.906;8.598;2022-12-22T05:05:29;4.03;;;2.53;;
6665;SDS011;3369;49.906;8.598;2022-12-22T05:07:55;5.17;;;2.93;;
6665;SDS011;3369;49.906;8.598;2022-12-22T05:10:21;3.97;;;2.83;;
6665;SDS011;3369;49.906;8.598;2022-12-22T05:12:46;4.83;;;2.70;;
6665;SDS011;3369;49.906;8.598;2022-12-22T05:15:21;5.60;;;3.13;;
6665;SDS011;3369;49.906;8.598;2022-12-22T05:17:48;3.33;;;3.00;;
6665;SDS011;3369;49.906;8.598;2022-12-22T05:20:14;4.87;;;2.93;;
6665;SDS011;3369;49.906;8.598;2022-12-22T05:22:40;3.67;;;2.97;;
6665;SDS011;3369;49.906;8.598;2022-12-22T05:25:05;5.27;;;2.50;;
6665;SDS011;3369;49.906;8.598;2022-12-22T05:27:31;4.57;;;3.20;;
6665;SDS011;3369;49.906;8.598;2022-12-22T05:29:57;3.90;;;2.90;;
6665;SDS011;3369;49.906;8.598;2022-12-22T05:32:22;5.00;;;2.60;;
6665;SDS011;3369;49.906;8.598;2022-12-22T05:34:48;4.27;;;2.80;;
6665;SDS011;3369;49.906;8.598;2022-12-22T05:37:14;5.53;;;2.87;;
6665;SDS011;3369;49.906;8.598;2022-12-22T05:39:39;4.57;;;2.77;;
6665;SDS011;3369;49.906;8.598;2022-12-22T05:42:05;5.37;;;2.50;;
6665;SDS011;3369;49.906;8.598;2022-12-22T05:44:30;5.13;;;2.10;;
6665;SDS011;3369;49.906;8.598;2022-12-22T05:46:56;3.97;;;2.43;;
6665;SDS011;3369;49.906;8.598;2022-12-22T05:49:22;4.00;;;2.37;;
6665;SDS011;3369;49.906;8.598;2022-12-22T05:51:47;2.57;;;2.03;;
6665;SDS011;3369;49.906;8.598;2022-12-22T05:54:14;2.13;;;1.87;;
6665;SDS011;3369;49.906;8.598;2022-12-22T05:56:39;4.03;;;2.40;;
6665;SDS011;3369;49.906;8.598;2022-12-22T05:59:05;6.30;;;2.27;;
6665;SDS011;3369;49.906;8.598;2022-12-22T06:01:30;2.67;;;1.93;;
6665;SDS011;3369;49.906;8.598;2022-12-22T06:03:56;3.10;;;1.93;;
6665;SDS011;3369;49.906;8.598;2022-12-22T06:06:22;2.40;;;2.20;;
6665;SDS011;3369;49.906;8.598;2022-12-22T06:08:47;2.97;;;2.00;;
6665;SDS011;3369;49.906;8.598;2022-12-22T06:11:13;2.07;;;1.97;;
6665;SDS011;3369;49.906;8.598;2022-12-22T06:13:42;4.30;;;1.83;;
6665;SDS011;3369;49.906;8.598;2022-12-22T06:16:09;4.03;;;1.63;;
6665;SDS011;3369;49.906;8.598;2022-12-22T06:18:35;2.57;;;2.07;;
6665;SDS011;3369;49.906;8.598;2022-12-22T06:21:01;2.97;;;1.83;;
6665;SDS011;3369;49.906;8.598;2022-12-22T06:23:27;1.37;;;1.30;;
6665;SDS011;3369;49.906;8.598;2022-12-22T06:25:53;3.50;;;1.80;;
6665;SDS011;3369;49.906;8.598;2022-12-22T06:28:26;5.77;;;1.80;;
6665;SDS011;3369;49.906;8.598;2022-12-22T06:30:53;1.73;;;1.60;;
6665;SDS011;3369;49.906;8.598;2022-12-22T06:33:19;2.90;;;2.03;;
6665;SDS011;3369;49.906;8.598;2022-12-22T06:35:45;5.63;;;1.93;;
6665;SDS011;3369;49.906;8.598;2022-12-22T06:38:11;4.30;;;1.70;;
6665;SDS011;3369;49.906;8.598;2022-12-22T06:40:37;2.93;;;1.80;;
6665;SDS011;3369;49.906;8.598;2022-12-22T06:43:02;4.13;;;1.80;;
6665;SDS011;3369;49.906;8.598;2022-12-22T06:45:34;2.07;;;1.40;;
6665;SDS011;3369;49.906;8.598;2022-12-22T06:48:02;2.93;;;1.90;;
6665;SDS011;3369;49.906;8.598;2022-12-22T06:50:28;6.20;;;2.20;;
6665;SDS011;3369;49.906;8.598;2022-12-22T06:52:54;2.37;;;1.90;;
6665;SDS011;3369;49.906;8.598;2022-12-22T06:55:19;3.20;;;1.70;;
6665;SDS011;3369;49.906;8.598;2022-12-22T06:57:45;2.87;;;1.80;;
6665;SDS011;3369;49.906;8.598;2022-12-22T07:00:10;5.47;;;1.50;;
6665;SDS011;3369;49.906;8.598;2022-12-22T07:02:36;2.17;;;1.60;;
6665;SDS011;3369;49.906;8.598;2022-12-22T07:05:02;6.10;;;2.00;;
6665;SDS011;3369;49.906;8.598;2022-12-22T07:07:28;4.30;;;1.80;;
6665;SDS011;3369;49.906;8.598;2022-12-22T07:09:53;3.03;;;1.87;;
6665;SDS011;3369;49.906;8.598;2022-12-22T07:12:20;7.40;;;1.97;;
6665;SDS011;3369;49.906;8.598;2022-12-22T07:14:47;6.47;;;2.00;;
6665;SDS011;3369;49.906;8.598;2022-12-22T07:17:12;7.90;;;2.60;;
6665;SDS011;3369;49.906;8.598;2022-12-22T07:19:38;3.13;;;1.70;;
6665;SDS011;3369;49.906;8.598;2022-12-22T07:22:03;3.30;;;1.90;;
6665;SDS011;3369;49.906;8.598;2022-12-22T07:24:29;3.77;;;2.00;;
6665;SDS011;3369;49.906;8.598;2022-12-22T07:26:55;5.30;;;1.77;;
6665;SDS011;3369;49.906;8.598;2022-12-22T07:29:21;3.97;;;1.90;;
6665;SDS011;3369;49.906;8.598;2022-12-22T07:31:47;4.70;;;2.27;;
6665;SDS011;3369;49.906;8.598;2022-12-22T07:34:13;5.73;;;2.00;;
6665;SDS011;3369;49.906;8.598;2022-12-22T07:36:38;5.73;;;1.93;;
6665;SDS011;3369;49.906;8.598;2022-12-22T07:39:04;5.90;;;2.00;;
6665;SDS011;3369;49.906;8.598;2022-12-22T07:41:30;4.23;;;1.83;;
6665;SDS011;3369;49.906;8.598;2022-12-22T07:44:14;4.50;;;2.00;;
6665;SDS011;3369;49.906;8.598;2022-12-22T07:46:40;5.83;;;2.33;;
6665;SDS011;3369;49.906;8.598;2022-12-22T07:49:06;5.17;;;2.17;;
6665;SDS011;3369;49.906;8.598;2022-12-22T07:51:51;5.10;;;2.00;;
6665;SDS011;3369;49.906;8.598;2022-12-22T07:54:16;3.90;;;1.67;;
6665;SDS011;3369;49.906;8.598;2022-12-22T07:56:44;2.77;;;1.90;;
6665;SDS011;3369;49.906;8.598;2022-12-22T07:59:11;3.80;;;1.57;;
6665;SDS011;3369;49.906;8.598;2022-12-22T08:01:37;3.87;;;1.30;;
6665;SDS011;3369;49.906;8.598;2022-12-22T08:04:04;3.80;;;1.77;;
6665;SDS011;3369;49.906;8.598;2022-12-22T08:06:33;2.30;;;1.43;;
6665;SDS011;3369;49.906;8.598;2022-12-22T08:08:59;3.90;;;1.53;;
6665;SDS011;3369;49.906;8.598;2022-12-22T08:11:25;2.70;;;1.30;;
6665;SDS011;3369;49.906;8.598;2022-12-22T08:13:50;4.53;;;1.50;;
6665;SDS011;3369;49.906;8.598;2022-12-22T08:16:16;2.67;;;1.63;;
6665;SDS011;3369;49.906;8.598;2022-12-22T08:18:43;2.77;;;1.10;;
6665;SDS011;3369;49.906;8.598;2022-12-22T08:21:09;2.97;;;1.07;;
6665;SDS011;3369;49.906;8.598;2022-12-22T08:23:35;4.50;;;1.03;;
6665;SDS011;3369;49.906;8.598;2022-12-22T08:28:30;2.83;;;1.20;;
6665;SDS011;3369;49.906;8.598;2022-12-22T08:30:58;6.70;;;1.67;;
6665;SDS011;3369;49.906;8.598;2022-12-22T08:33:24;3.77;;;1.20;;
6665;SDS011;3369;49.906;8.598;2022-12-22T08:35:50;3.70;;;1.40;;
6665;SDS011;3369;49.906;8.598;2022-12-22T08:38:15;5.17;;;1.60;;
6665;SDS011;3369;49.906;8.598;2022-12-22T08:40:41;2.40;;;1.23;;
6665;SDS011;3369;49.906;8.598;2022-12-22T08:43:08;4.00;;;1.30;;
6665;SDS011;3369;49.906;8.598;2022-12-22T08:45:35;7.97;;;1.77;;
6665;SDS011;3369;49.906;8.598;2022-12-22T08:48:01;4.23;;;1.30;;
6665;SDS011;3369;49.906;8.598;2022-12-22T08:50:26;4.80;;;1.50;;
6665;SDS011;3369;49.906;8.598;2022-12-22T08:52:52;6.77;;;1.50;;
6665;SDS011;3369;49.906;8.598;2022-12-22T08:55:25;4.97;;;1.90;;
6665;SDS011;3369;49.906;8.598;2022-12-22T08:57:50;4.37;;;1.40;;
6665;SDS011;3369;49.906;8.598;2022-12-22T09:00:16;6.63;;;1.70;;
6665;SDS011;3369;49.906;8.598;2022-12-22T09:02:42;9.77;;;1.77;;
6665;SDS011;3369;49.906;8.598;2022-12-22T09:05:07;6.80;;;2.43;;
6665;SDS011;3369;49.906;8.598;2022-12-22T09:07:33;7.03;;;1.63;;
6665;SDS011;3369;49.906;8.598;2022-12-22T09:09:59;5.93;;;1.80;;
6665;SDS011;3369;49.906;8.598;2022-12-22T09:12:24;8.30;;;2.27;;
6665;SDS011;3369;49.906;8.598;2022-12-22T09:14:50;2.73;;;1.30;;
6665;SDS011;3369;49.906;8.598;2022-12-22T09:17:15;8.73;;;2.00;;
6665;SDS011;3369;49.906;8.598;2022-12-22T09:19:41;9.43;;;1.93;;
6665;SDS011;3369;49.906;8.598;2022-12-22T09:22:07;7.37;;;1.73;;
6665;SDS011;3369;49.906;8.598;2022-12-22T09:24:33;6.03;;;1.63;;
6665;SDS011;3369;49.906;8.598;2022-12-22T09:26:59;5.80;;;1.47;;
6665;SDS011;3369;49.906;8.598;2022-12-22T09:29:24;7.53;;;1.60;;
6665;SDS011;3369;49.906;8.598;2022-12-22T09:31:50;2.97;;;1.17;;
6665;SDS011;3369;49.906;8.598;2022-12-22T09:34:15;4.40;;;1.80;;
6665;SDS011;3369;49.906;8.598;2022-12-22T09:36:41;5.00;;;1.50;;
6665;SDS011;3369;49.906;8.598;2022-12-22T09:39:07;5.87;;;2.00;;
6665;SDS011;3369;49.906;8.598;2022-12-22T09:47:03;5.53;;;1.70;;
6665;SDS011;3369;49.906;8.598;2022-12-22T09:49:36;7.27;;;1.60;;
6665;SDS011;3369;49.906;8.598;2022-12-22T09:52:02;7.73;;;2.17;;
6665;SDS011;3369;49.906;8.598;2022-12-22T09:54:29;5.97;;;1.37;;
6665;SDS011;3369;49.906;8.598;2022-12-22T09:56:55;5.53;;;1.20;;
6665;SDS011;3369;49.906;8.598;2022-12-22T09:59:24;4.67;;;1.87;;
6665;SDS011;3369;49.906;8.598;2022-12-22T10:04:48;3.73;;;1.40;;
6665;SDS011;3369;49.906;8.598;2022-12-22T10:07:36;4.57;;;1.63;;
6665;SDS011;3369;49.906;8.598;2022-12-22T10:10:07;7.10;;;1.70;;
6665;SDS011;3369;49.906;8.598;2022-12-22T10:12:41;4.50;;;1.90;;
6665;SDS011;3369;49.906;8.598;2022-12-22T10:15:09;5.57;;;1.50;;
6665;SDS011;3369;49.906;8.598;2022-12-22T10:17:36;5.70;;;1.67;;
6665;SDS011;3369;49.906;8.598;2022-12-22T10:22:46;3.47;;;1.40;;
6665;SDS011;3369;49.906;8.598;2022-12-22T10:25:25;1.77;;;1.10;;
6665;SDS011;3369;49.906;8.598;2022-12-22T10:27:55;6.77;;;1.80;;
6665;SDS011;3369;49.906;8.598;2022-12-22T10:38:18;3.03;;;1.30;;
6665;SDS011;3369;49.906;8.598;2022-12-22T10:40:47;5.23;;;1.13;;
6665;SDS011;3369;49.906;8.598;2022-12-22T10:43:34;3.93;;;1.27;;
6665;SDS011;3369;49.906;8.598;2022-12-22T10:46:04;2.00;;;1.00;;
6665;SDS011;3369;49.906;8.598;2022-12-22T10:48:34;1.80;;;1.07;;
6665;SDS011;3369;49.906;8.598;2022-12-22T10:51:03;4.10;;;1.30;;
6665;SDS011;3369;49.906;8.598;2022-12-22T10:56:25;4.20;;;1.23;;
6665;SDS011;3369;49.906;8.598;2022-12-22T10:58:56;0.73;;;0.73;;
6665;SDS011;3369;49.906;8.598;2022-12-22T11:01:33;3.40;;;0.93;;
6665;SDS011;3369;49.906;8.598;2022-12-22T11:04:16;2.87;;;1.03;;
6665;SDS011;3369;49.906;8.598;2022-12-22T11:06:49;1.50;;;1.10;;
6665;SDS011;3369;49.906;8.598;2022-12-22T11:09:17;1.70;;;1.00;;
6665;SDS011;3369;49.906;8.598;2022-12-22T11:11:55;3.90;;;1.33;;
6665;SDS011;3369;49.906;8.598;2022-12-22T11:26:10;1.97;;;0.83;;
6665;SDS011;3369;49.906;8.598;2022-12-22T11:36:33;0.80;;;0.70;;
6665;SDS011;3369;49.906;8.598;2022-12-22T11:39:45;1.10;;;0.77;;
6665;SDS011;3369;49.906;8.598;2022-12-22T11:56:58;4.27;;;0.60;;
6665;SDS011;3369;49.906;8.598;2022-12-22T12:07:37;0.73;;;0.73;;
6665;SDS011;3369;49.906;8.598;2022-12-22T12:10:29;0.70;;;0.70;;
6665;SDS011;3369;49.906;8.598;2022-12-22T12:13:06;0.70;;;0.70;;
6665;SDS011;3369;49.906;8.598;2022-12-22T12:15:47;1.60;;;0.60;;
6665;SDS011;3369;49.906;8.598;2022-12-22T12:29:19;1.10;;;0.70;;
6665;SDS011;3369;49.906;8.598;2022-12-22T12:31:57;0.93;;;0.70;;
6665;SDS011;3369;49.906;8.598;2022-12-22T12:34:24;0.70;;;0.70;;
6665;SDS011;3369;49.906;8.598;2022-12-22T12:37:07;1.00;;;0.70;;
6665;SDS011;3369;49.906;8.598;2022-12-22T12:44:57;0.70;;;0.70;;
6665;SDS011;3369;49.906;8.598;2022-12-22T12:47:30;1.53;;;0.80;;
6665;SDS011;3369;49.906;8.598;2022-12-22T12:53:03;0.83;;;0.80;;
6665;SDS011;3369;49.906;8.598;2022-12-22T12:57:58;1.33;;;0.70;;
6665;SDS011;3369;49.906;8.598;2022-12-22T13:08:19;0.80;;;0.80;;
6665;SDS011;3369;49.906;8.598;2022-12-22T13:20:59;1.03;;;0.90;;
6665;SDS011;3369;49.906;8.598;2022-12-22T13:23:28;1.07;;;1.00;;
6665;SDS011;3369;49.906;8.598;2022-12-22T13:26:01;1.30;;;0.90;;
6665;SDS011;3369;49.906;8.598;2022-12-22T13:28:30;0.67;;;0.67;;
6665;SDS011;3369;49.906;8.598;2022-12-22T13:30:58;0.50;;;0.50;;
6665;SDS011;3369;49.906;8.598;2022-12-22T13:33:28;0.63;;;0.60;;
6665;SDS011;3369;49.906;8.598;2022-12-22T13:35:56;0.50;;;0.50;;
6665;SDS011;3369;49.906;8.598;2022-12-22T13:40:53;0.60;;;0.60;;
6665;SDS011;3369;49.906;8.598;2022-12-22T13:43:19;1.37;;;0.77;;
6665;SDS011;3369;49.906;8.598;2022-12-22T13:45:46;1.00;;;0.93;;
6665;SDS011;3369;49.906;8.598;2022-12-22T13:48:23;0.67;;;0.67;;
6665;SDS011;3369;49.906;8.598;2022-12-22T13:50:50;1.13;;;0.90;;
6665;SDS011;3369;49.906;8.598;2022-12-22T13:53:22;0.80;;;0.80;;
6665;SDS011;3369;49.906;8.598;2022-12-22T13:55:54;0.70;;;0.70;;
6665;SDS011;3369;49.906;8.598;2022-12-22T13:58:25;0.97;;;0.97;;
6665;SDS011;3369;49.906;8.598;2022-12-22T14:01:00;0.77;;;0.77;;
6665;SDS011;3369;49.906;8.598;2022-12-22T14:03:38;0.60;;;0.60;;
6665;SDS011;3369;49.906;8.598;2022-12-22T14:06:25;0.80;;;0.80;;
6665;SDS011;3369;49.906;8.598;2022-12-22T14:08:51;0.60;;;0.60;;
6665;SDS011;3369;49.906;8.598;2022-12-22T14:11:17;0.80;;;0.80;;
6665;SDS011;3369;49.906;8.598;2022-12-22T14:13:43;0.70;;;0.70;;
6665;SDS011;3369;49.906;8.598;2022-12-22T14:16:11;0.57;;;0.57;;
6665;SDS011;3369;49.906;8.598;2022-12-22T14:18:38;0.70;;;0.70;;
6665;SDS011;3369;49.906;8.598;2022-12-22T14:21:04;1.10;;;0.80;;
6665;SDS011;3369;49.906;8.598;2022-12-22T14:23:36;0.70;;;0.70;;
6665;SDS011;3369;49.906;8.598;2022-12-22T14:26:04;1.00;;;1.00;;
6665;SDS011;3369;49.906;8.598;2022-12-22T14:28:40;0.97;;;0.90;;
6665;SDS011;3369;49.906;8.598;2022-12-22T14:31:14;2.93;;;1.13;;
6665;SDS011;3369;49.906;8.598;2022-12-22T14:58:10;0.60;;;0.60;;
6665;SDS011;3369;49.906;8.598;2022-12-22T15:00:43;0.63;;;0.63;;
6665;SDS011;3369;49.906;8.598;2022-12-22T15:05:49;2.00;;;0.83;;
6665;SDS011;3369;49.906;8.598;2022-12-22T15:11:01;0.97;;;0.90;;
6665;SDS011;3369;49.906;8.598;2022-12-22T15:13:27;0.80;;;0.77;;
6665;SDS011;3369;49.906;8.598;2022-12-22T15:15:54;0.77;;;0.77;;
6665;SDS011;3369;49.906;8.598;2022-12-22T15:18:24;1.23;;;0.80;;
6665;SDS011;3369;49.906;8.598;2022-12-22T15:20:51;1.37;;;1.00;;
6665;SDS011;3369;49.906;8.598;2022-12-22T15:23:20;0.97;;;0.97;;
6665;SDS011;3369;49.906;8.598;2022-12-22T15:25:46;0.90;;;0.90;;
6665;SDS011;3369;49.906;8.598;2022-12-22T15:28:11;0.80;;;0.80;;
6665;SDS011;3369;49.906;8.598;2022-12-22T15:30:37;0.90;;;0.90;;
6665;SDS011;3369;49.906;8.598;2022-12-22T15:33:08;1.03;;;0.90;;
6665;SDS011;3369;49.906;8.598;2022-12-22T15:35:37;1.00;;;1.00;;
6665;SDS011;3369;49.906;8.598;2022-12-22T15:38:05;1.10;;;1.00;;
6665;SDS011;3369;49.906;8.598;2022-12-22T15:40:37;1.17;;;0.70;;
6665;SDS011;3369;49.906;8.598;2022-12-22T15:43:02;0.70;;;0.70;;
6665;SDS011;3369;49.906;8.598;2022-12-22T15:45:28;0.87;;;0.87;;
6665;SDS011;3369;49.906;8.598;2022-12-22T15:47:54;0.60;;;0.60;;
6665;SDS011;3369;49.906;8.598;2022-12-22T15:50:21;1.70;;;0.73;;
6665;SDS011;3369;49.906;8.598;2022-12-22T15:52:50;0.80;;;0.80;;
6665;SDS011;3369;49.906;8.598;2022-12-22T15:55:18;0.50;;;0.50;;
6665;SDS011;3369;49.906;8.598;2022-12-22T15:57:45;0.67;;;0.67;;
6665;SDS011;3369;49.906;8.598;2022-12-22T16:00:13;0.67;;;0.57;;
6665;SDS011;3369;49.906;8.598;2022-12-22T16:02:39;0.70;;;0.70;;
6665;SDS011;3369;49.906;8.598;2022-12-22T16:05:05;0.70;;;0.70;;
6665;SDS011;3369;49.906;8.598;2022-12-22T16:07:32;0.57;;;0.57;;
6665;SDS011;3369;49.906;8.598;2022-12-22T16:09:58;1.13;;;0.90;;
6665;SDS011;3369;49.906;8.598;2022-12-22T16:12:24;0.70;;;0.70;;
6665;SDS011;3369;49.906;8.598;2022-12-22T16:14:51;0.70;;;0.70;;
6665;SDS011;3369;49.906;8.598;2022-12-22T16:17:20;0.97;;;0.70;;
6665;SDS011;3369;49.906;8.598;2022-12-22T16:19:47;0.67;;;0.67;;
6665;SDS011;3369;49.906;8.598;2022-12-22T16:22:14;0.80;;;0.80;;
6665;SDS011;3369;49.906;8.598;2022-12-22T16:24:43;0.80;;;0.80;;
6665;SDS011;3369;49.906;8.598;2022-12-22T16:27:11;1.10;;;1.00;;
6665;SDS011;3369;49.906;8.598;2022-12-22T16:29:38;1.13;;;0.90;;
6665;SDS011;3369;49.906;8.598;2022-12-22T16:32:14;0.77;;;0.77;;
6665;SDS011;3369;49.906;8.598;2022-12-22T16:34:43;1.07;;;0.97;;
6665;SDS011;3369;49.906;8.598;2022-12-22T16:37:09;1.43;;;1.10;;
6665;SDS011;3369;49.906;8.598;2022-12-22T16:39:34;1.00;;;0.90;;
6665;SDS011;3369;49.906;8.598;2022-12-22T16:42:00;1.17;;;1.07;;
6665;SDS011;3369;49.906;8.598;2022-12-22T16:44:26;0.90;;;0.90;;
6665;SDS011;3369;49.906;8.598;2022-12-22T16:46:51;2.13;;;1.27;;
6665;SDS011;3369;49.906;8.598;2022-12-22T16:49:17;1.40;;;1.33;;
6665;SDS011;3369;49.906;8.598;2022-12-22T16:51:48;1.30;;;1.20;;
6665;SDS011;3369;49.906;8.598;2022-12-22T16:54:16;1.97;;;1.50;;
6665;SDS011;3369;49.906;8.598;2022-12-22T16:56:42;1.40;;;1.30;;
6665;SDS011;3369;49.906;8.598;2022-12-22T16:59:11;1.73;;;1.50;;
6665;SDS011;3369;49.906;8.598;2022-12-22T17:01:38;1.60;;;1.40;;
6665;SDS011;3369;49.906;8.598;2022-12-22T17:04:23;1.57;;;1.47;;
6665;SDS011;3369;49.906;8.598;2022-12-22T17:06:52;3.43;;;1.30;;
6665;SDS011;3369;49.906;8.598;2022-12-22T17:09:21;1.77;;;1.60;;
6665;SDS011;3369;49.906;8.598;2022-12-22T17:11:54;4.00;;;1.60;;
6665;SDS011;3369;49.906;8.598;2022-12-22T17:14:25;1.70;;;1.60;;
6665;SDS011;3369;49.906;8.598;2022-12-22T17:16:55;2.53;;;1.83;;
6665;SDS011;3369;49.906;8.598;2022-12-22T17:19:21;2.50;;;1.77;;
6665;SDS011;3369;49.906;8.598;2022-12-22T17:21:46;2.70;;;2.50;;
6665;SDS011;3369;49.906;8.598;2022-12-22T17:24:12;7.70;;;6.07;;
6665;SDS011;3369;49.906;8.598;2022-12-22T17:26:40;7.77;;;4.27;;
6665;SDS011;3369;49.906;8.598;2022-12-22T17:29:10;2.73;;;2.53;;
6665;SDS011;3369;49.906;8.598;2022-12-22T17:31:39;2.77;;;2.10;;
6665;SDS011;3369;49.906;8.598;2022-12-22T17:34:15;2.53;;;2.10;;
6665;SDS011;3369;49.906;8.598;2022-12-22T17:36:42;1.93;;;1.80;;
6665;SDS011;3369;49.906;8.598;2022-12-22T17:39:14;2.10;;;2.00;;
6665;SDS011;3369;49.906;8.598;2022-12-22T17:41:42;5.23;;;2.27;;
6665;SDS011;3369;49.906;8.598;2022-12-22T17:44:15;3.53;;;2.30;;
6665;SDS011;3369;49.906;8.598;2022-12-22T17:46:43;2.47;;;2.27;;
6665;SDS011;3369;49.906;8.598;2022-12-22T17:49:09;2.07;;;1.77;;
6665;SDS011;3369;49.906;8.598;2022-12-22T17:51:35;3.03;;;2.03;;
6665;SDS011;3369;49.906;8.598;2022-12-22T17:54:02;2.60;;;1.73;;
6665;SDS011;3369;49.906;8.598;2022-12-22T17:56:28;4.77;;;2.03;;
6665;SDS011;3369;49.906;8.598;2022-12-22T17:58:54;5.83;;;1.97;;
6665;SDS011;3369;49.906;8.598;2022-12-22T18:03:55;5.77;;;2.67;;
6665;SDS011;3369;49.906;8.598;2022-12-22T18:06:23;7.83;;;2.70;;
6665;SDS011;3369;49.906;8.598;2022-12-22T18:08:51;4.90;;;2.83;;
6665;SDS011;3369;49.906;8.598;2022-12-22T18:11:18;6.53;;;3.00;;
6665;SDS011;3369;49.906;8.598;2022-12-22T18:13:44;8.13;;;3.23;;
6665;SDS011;3369;49.906;8.598;2022-12-22T18:16:14;8.27;;;3.53;;
6665;SDS011;3369;49.906;8.598;2022-12-22T18:18:41;8.47;;;4.00;;
6665;SDS011;3369;49.906;8.598;2022-12-22T18:21:12;8.40;;;3.87;;
6665;SDS011;3369;49.906;8.598;2022-12-22T18:23:43;14.10;;;4.03;;
6665;SDS011;3369;49.906;8.598;2022-12-22T18:26:12;17.43;;;5.93;;
6665;SDS011;3369;49.906;8.598;2022-12-22T18:28:48;23.30;;;5.13;;
6665;SDS011;3369;49.906;8.598;2022-12-22T18:31:14;15.10;;;5.57;;
6665;SDS011;3369;49.906;8.598;2022-12-22T18:33:40;19.20;;;5.60;;